Observations for Trim Market St
| Time | AQI | Temp °C | Hum % | Pres Pa | CO μg/m³ | H₂S μg/m³ | NO μg/m³ | NO₂ μg/m³ | O₃ μg/m³ | SO₂ μg/m³ | PM1 μg/m³ | PM2.5 μg/m³ | PM10 μg/m³ |
|---|---|---|---|---|---|---|---|---|---|---|---|---|---|
| Wednesday 8 July 2026 | |||||||||||||
| 01:44 | 1 | 18.5 | 74 | 42,427 | 0 | 0 | 0 | 5.46 | 14.65 | 0 | 0 | 0.94 | 2.71 |
| 01:43 | 1 | 18.5 | 74 | 42,688 | 0 | 0 | 0 | 3.56 | 10.65 | 0 | 0 | 1.9 | 4.52 |
| 01:42 | 1 | 18.5 | 74 | 42,852 | 0 | 0 | 0 | 4.77 | 10.56 | 0 | 0 | 1.91 | 3.91 |
| 01:41 | 1 | 18.6 | 74 | 42,944 | 0 | 0 | 1.23 | 4.34 | 9.84 | 0 | 0 | 0.95 | 3.91 |
| 01:38 | 1 | 18.6 | 74 | 43,108 | 0 | 0 | 0 | 3.14 | 16.58 | 0 | 0.71 | 1.91 | 3.91 |
| 01:33 | 1 | 18.7 | 74 | 43,712 | 0 | 0 | 0 | 4.04 | 13.29 | 0 | 0 | 1.92 | 3.9 |
| 01:31 | 1 | 18.6 | 74 | 44,237 | 0 | 0 | 0 | 4.69 | 12.49 | 0 | 0 | 0.96 | 2.68 |
| 01:30 | 1 | 18.7 | 74 | 44,525 | 0 | 0 | 0 | 4.86 | 11.4 | 0 | 0 | 1.45 | 4.5 |
| 01:27 | 1 | 18.7 | 73 | 45,026 | 0 | 0 | 0 | 4.77 | 12.08 | 0 | 0 | 2.41 | 4.5 |
| 01:21 | 1 | 18.8 | 73 | 45,330 | 0 | 0 | 0 | 3.68 | 12.97 | 0 | 0 | 1.46 | 3.27 |
| 01:20 | 1 | 18.8 | 73 | 45,388 | 0 | 0 | 0 | 4.59 | 13.28 | 0 | 0 | 1.47 | 3.27 |
| 01:19 | 1 | 18.8 | 73 | 45,604 | 0 | 0 | 0 | 3.69 | 12.98 | 0 | 0 | 1.47 | 4.49 |
| 01:18 | 1 | 18.9 | 73 | 45,830 | 0 | 0 | 0 | 4.76 | 10.8 | 0 | 0 | 1.95 | 4.49 |
| 01:17 | 1 | 18.9 | 73 | 46,181 | 0 | 0 | 0 | 3.97 | 12.09 | 0 | 0 | 1.47 | 3.26 |
| 01:16 | 1 | 18.9 | 73 | 46,502 | 0 | 0 | 0 | 4.47 | 11.75 | 0 | 0 | 0.99 | 2.65 |
| 01:15 | 1 | 18.9 | 73 | 46,786 | 0 | 0 | 0 | 4.39 | 12.64 | 0 | 0 | 1.96 | 3.87 |
| 01:14 | 1 | 19 | 73 | 47,057 | 0 | 0 | 0 | 4.46 | 10.72 | 0 | 0 | 1.48 | 3.87 |
| 01:13 | 1 | 19 | 73 | 47,326 | 0 | 0 | 0 | 4.27 | 11.64 | 0 | 0 | 1 | 2.64 |
| 01:12 | 1 | 19 | 73 | 47,515 | 0 | 0 | 0 | 3.67 | 10.73 | 0 | 0 | 1 | 2.64 |
| 01:11 | 1 | 19 | 73 | 47,673 | 0 | 0 | 0 | 3.48 | 12.5 | 0 | 0 | 1 | 2.64 |